sensor_id;sensor_type;location;lat;lon;timestamp;P1;durP1;ratioP1;P2;durP2;ratioP2
2644;SDS011;15377;48.540;9.268;2023-04-03T00:00:44;8.90;;;5.33;;
2644;SDS011;15377;48.540;9.268;2023-04-03T00:03:10;9.53;;;5.80;;
2644;SDS011;15377;48.540;9.268;2023-04-03T00:05:35;8.20;;;5.10;;
2644;SDS011;15377;48.540;9.268;2023-04-03T00:08:01;8.13;;;5.10;;
2644;SDS011;15377;48.540;9.268;2023-04-03T00:10:27;10.47;;;5.47;;
2644;SDS011;15377;48.540;9.268;2023-04-03T00:12:52;8.30;;;5.30;;
2644;SDS011;15377;48.540;9.268;2023-04-03T00:15:18;8.97;;;5.67;;
2644;SDS011;15377;48.540;9.268;2023-04-03T00:17:43;8.87;;;5.20;;
2644;SDS011;15377;48.540;9.268;2023-04-03T00:20:09;9.30;;;5.30;;
2644;SDS011;15377;48.540;9.268;2023-04-03T00:22:34;8.80;;;5.00;;
2644;SDS011;15377;48.540;9.268;2023-04-03T00:25:00;8.67;;;5.57;;
2644;SDS011;15377;48.540;9.268;2023-04-03T00:27:25;8.63;;;5.27;;
2644;SDS011;15377;48.540;9.268;2023-04-03T00:29:50;8.43;;;5.43;;
2644;SDS011;15377;48.540;9.268;2023-04-03T00:32:16;8.00;;;5.20;;
2644;SDS011;15377;48.540;9.268;2023-04-03T00:34:41;9.40;;;5.60;;
2644;SDS011;15377;48.540;9.268;2023-04-03T00:37:07;9.00;;;5.80;;
2644;SDS011;15377;48.540;9.268;2023-04-03T00:39:32;7.60;;;4.73;;
2644;SDS011;15377;48.540;9.268;2023-04-03T00:41:57;9.70;;;5.70;;
2644;SDS011;15377;48.540;9.268;2023-04-03T00:47:00;9.18;;;6.10;;
2644;SDS011;15377;48.540;9.268;2023-04-03T00:49:28;9.13;;;5.15;;
2644;SDS011;15377;48.540;9.268;2023-04-03T00:51:54;8.70;;;5.50;;
2644;SDS011;15377;48.540;9.268;2023-04-03T00:54:21;10.32;;;5.50;;
2644;SDS011;15377;48.540;9.268;2023-04-03T00:56:47;9.10;;;5.40;;
2644;SDS011;15377;48.540;9.268;2023-04-03T00:59:15;8.38;;;5.10;;
2644;SDS011;15377;48.540;9.268;2023-04-03T01:01:47;14.85;;;7.22;;
2644;SDS011;15377;48.540;9.268;2023-04-03T01:07:03;8.68;;;5.55;;
2644;SDS011;15377;48.540;9.268;2023-04-03T01:09:32;11.68;;;6.13;;
2644;SDS011;15377;48.540;9.268;2023-04-03T01:14:42;10.50;;;5.22;;
2644;SDS011;15377;48.540;9.268;2023-04-03T01:17:28;10.75;;;5.65;;
2644;SDS011;15377;48.540;9.268;2023-04-03T01:19:57;9.88;;;5.50;;
2644;SDS011;15377;48.540;9.268;2023-04-03T01:22:49;9.25;;;5.10;;
2644;SDS011;15377;48.540;9.268;2023-04-03T01:25:18;7.93;;;5.00;;
2644;SDS011;15377;48.540;9.268;2023-04-03T01:27:43;8.37;;;5.70;;
2644;SDS011;15377;48.540;9.268;2023-04-03T01:30:09;9.17;;;5.40;;
2644;SDS011;15377;48.540;9.268;2023-04-03T01:32:35;10.60;;;5.50;;
2644;SDS011;15377;48.540;9.268;2023-04-03T01:35:00;8.30;;;5.97;;
2644;SDS011;15377;48.540;9.268;2023-04-03T01:37:26;8.70;;;5.50;;
2644;SDS011;15377;48.540;9.268;2023-04-03T01:39:51;8.00;;;5.43;;
2644;SDS011;15377;48.540;9.268;2023-04-03T01:42:16;8.53;;;5.30;;
2644;SDS011;15377;48.540;9.268;2023-04-03T01:44:42;8.97;;;5.53;;
2644;SDS011;15377;48.540;9.268;2023-04-03T01:47:07;10.30;;;5.40;;
2644;SDS011;15377;48.540;9.268;2023-04-03T01:49:33;10.10;;;5.67;;
2644;SDS011;15377;48.540;9.268;2023-04-03T01:51:58;8.70;;;5.23;;
2644;SDS011;15377;48.540;9.268;2023-04-03T01:54:24;9.60;;;5.77;;
2644;SDS011;15377;48.540;9.268;2023-04-03T01:56:49;8.33;;;4.93;;
2644;SDS011;15377;48.540;9.268;2023-04-03T01:59:14;8.60;;;6.07;;
2644;SDS011;15377;48.540;9.268;2023-04-03T02:01:42;9.10;;;5.68;;
2644;SDS011;15377;48.540;9.268;2023-04-03T02:04:08;11.57;;;5.32;;
2644;SDS011;15377;48.540;9.268;2023-04-03T02:06:33;9.83;;;6.17;;
2644;SDS011;15377;48.540;9.268;2023-04-03T02:08:59;8.03;;;4.97;;
2644;SDS011;15377;48.540;9.268;2023-04-03T02:11:25;9.40;;;5.70;;
2644;SDS011;15377;48.540;9.268;2023-04-03T02:13:50;14.50;;;6.30;;
2644;SDS011;15377;48.540;9.268;2023-04-03T02:16:16;9.60;;;5.97;;
2644;SDS011;15377;48.540;9.268;2023-04-03T02:18:41;9.50;;;4.83;;
2644;SDS011;15377;48.540;9.268;2023-04-03T02:21:06;9.73;;;5.40;;
2644;SDS011;15377;48.540;9.268;2023-04-03T02:23:32;9.67;;;5.67;;
2644;SDS011;15377;48.540;9.268;2023-04-03T02:26:09;10.25;;;5.45;;
2644;SDS011;15377;48.540;9.268;2023-04-03T02:28:36;8.13;;;4.97;;
2644;SDS011;15377;48.540;9.268;2023-04-03T02:31:02;9.80;;;6.37;;
2644;SDS011;15377;48.540;9.268;2023-04-03T02:33:28;11.07;;;5.80;;
2644;SDS011;15377;48.540;9.268;2023-04-03T02:35:54;8.37;;;5.20;;
2644;SDS011;15377;48.540;9.268;2023-04-03T02:38:21;8.88;;;5.30;;
2644;SDS011;15377;48.540;9.268;2023-04-03T02:40:47;8.80;;;5.32;;
2644;SDS011;15377;48.540;9.268;2023-04-03T02:43:12;9.30;;;5.40;;
2644;SDS011;15377;48.540;9.268;2023-04-03T02:45:37;8.77;;;5.73;;
2644;SDS011;15377;48.540;9.268;2023-04-03T02:48:03;9.07;;;4.97;;
2644;SDS011;15377;48.540;9.268;2023-04-03T02:50:28;8.67;;;5.70;;
2644;SDS011;15377;48.540;9.268;2023-04-03T02:52:54;9.40;;;6.17;;
2644;SDS011;15377;48.540;9.268;2023-04-03T02:55:20;8.93;;;5.70;;
2644;SDS011;15377;48.540;9.268;2023-04-03T02:57:45;8.53;;;5.50;;
2644;SDS011;15377;48.540;9.268;2023-04-03T03:00:10;10.13;;;5.83;;
2644;SDS011;15377;48.540;9.268;2023-04-03T03:02:36;8.23;;;5.43;;
2644;SDS011;15377;48.540;9.268;2023-04-03T03:05:01;8.50;;;5.97;;
2644;SDS011;15377;48.540;9.268;2023-04-03T03:07:27;11.77;;;8.00;;
2644;SDS011;15377;48.540;9.268;2023-04-03T03:09:52;10.07;;;7.30;;
2644;SDS011;15377;48.540;9.268;2023-04-03T03:12:18;9.97;;;6.80;;
2644;SDS011;15377;48.540;9.268;2023-04-03T03:14:47;9.82;;;6.07;;
2644;SDS011;15377;48.540;9.268;2023-04-03T03:17:15;16.83;;;13.63;;
2644;SDS011;15377;48.540;9.268;2023-04-03T03:19:41;10.40;;;6.40;;
2644;SDS011;15377;48.540;9.268;2023-04-03T03:22:06;8.70;;;6.17;;
2644;SDS011;15377;48.540;9.268;2023-04-03T03:24:31;9.70;;;6.03;;
2644;SDS011;15377;48.540;9.268;2023-04-03T03:26:57;9.13;;;5.90;;
2644;SDS011;15377;48.540;9.268;2023-04-03T03:29:22;9.20;;;5.63;;
2644;SDS011;15377;48.540;9.268;2023-04-03T03:31:48;9.63;;;6.00;;
2644;SDS011;15377;48.540;9.268;2023-04-03T03:34:13;10.50;;;6.37;;
2644;SDS011;15377;48.540;9.268;2023-04-03T03:36:38;9.30;;;5.63;;
2644;SDS011;15377;48.540;9.268;2023-04-03T03:39:04;9.00;;;5.27;;
2644;SDS011;15377;48.540;9.268;2023-04-03T03:41:30;9.10;;;5.30;;
2644;SDS011;15377;48.540;9.268;2023-04-03T03:43:55;9.90;;;4.93;;
2644;SDS011;15377;48.540;9.268;2023-04-03T03:46:21;9.50;;;5.20;;
2644;SDS011;15377;48.540;9.268;2023-04-03T03:48:46;9.67;;;5.53;;
2644;SDS011;15377;48.540;9.268;2023-04-03T03:51:11;9.20;;;5.83;;
2644;SDS011;15377;48.540;9.268;2023-04-03T03:53:37;9.40;;;5.67;;
2644;SDS011;15377;48.540;9.268;2023-04-03T03:56:02;10.10;;;5.77;;
2644;SDS011;15377;48.540;9.268;2023-04-03T03:58:28;7.53;;;4.90;;
2644;SDS011;15377;48.540;9.268;2023-04-03T04:00:53;10.50;;;6.07;;
2644;SDS011;15377;48.540;9.268;2023-04-03T04:03:19;10.67;;;6.43;;
2644;SDS011;15377;48.540;9.268;2023-04-03T04:05:45;11.75;;;6.28;;
2644;SDS011;15377;48.540;9.268;2023-04-03T04:08:11;14.60;;;7.43;;
2644;SDS011;15377;48.540;9.268;2023-04-03T04:10:36;9.97;;;6.57;;
2644;SDS011;15377;48.540;9.268;2023-04-03T04:13:03;10.00;;;5.15;;
2644;SDS011;15377;48.540;9.268;2023-04-03T04:15:28;9.47;;;5.27;;
2644;SDS011;15377;48.540;9.268;2023-04-03T04:17:54;10.10;;;5.77;;
2644;SDS011;15377;48.540;9.268;2023-04-03T04:20:19;8.40;;;5.40;;
2644;SDS011;15377;48.540;9.268;2023-04-03T04:22:45;9.87;;;5.83;;
2644;SDS011;15377;48.540;9.268;2023-04-03T04:25:10;9.10;;;5.77;;
2644;SDS011;15377;48.540;9.268;2023-04-03T04:27:36;8.57;;;5.27;;
2644;SDS011;15377;48.540;9.268;2023-04-03T04:30:02;8.10;;;5.15;;
2644;SDS011;15377;48.540;9.268;2023-04-03T04:32:28;8.30;;;5.22;;
2644;SDS011;15377;48.540;9.268;2023-04-03T04:34:53;7.93;;;5.10;;
2644;SDS011;15377;48.540;9.268;2023-04-03T04:37:19;9.80;;;5.20;;
2644;SDS011;15377;48.540;9.268;2023-04-03T04:39:44;9.57;;;4.57;;
2644;SDS011;15377;48.540;9.268;2023-04-03T04:42:10;9.13;;;5.17;;
2644;SDS011;15377;48.540;9.268;2023-04-03T04:44:38;7.75;;;4.72;;
2644;SDS011;15377;48.540;9.268;2023-04-03T04:47:03;8.13;;;4.90;;
2644;SDS011;15377;48.540;9.268;2023-04-03T04:49:29;8.17;;;5.03;;
2644;SDS011;15377;48.540;9.268;2023-04-03T04:51:54;9.43;;;5.20;;
2644;SDS011;15377;48.540;9.268;2023-04-03T04:54:19;8.60;;;5.37;;
2644;SDS011;15377;48.540;9.268;2023-04-03T04:56:45;8.33;;;5.17;;
2644;SDS011;15377;48.540;9.268;2023-04-03T04:59:10;10.70;;;6.33;;
2644;SDS011;15377;48.540;9.268;2023-04-03T05:01:36;8.93;;;5.30;;
2644;SDS011;15377;48.540;9.268;2023-04-03T05:04:01;7.90;;;4.70;;
2644;SDS011;15377;48.540;9.268;2023-04-03T05:06:27;8.93;;;5.73;;
2644;SDS011;15377;48.540;9.268;2023-04-03T05:08:52;10.37;;;6.90;;
2644;SDS011;15377;48.540;9.268;2023-04-03T05:11:17;8.20;;;4.57;;
2644;SDS011;15377;48.540;9.268;2023-04-03T05:13:43;9.00;;;4.70;;
2644;SDS011;15377;48.540;9.268;2023-04-03T05:16:08;8.23;;;4.60;;
2644;SDS011;15377;48.540;9.268;2023-04-03T05:18:33;9.00;;;5.37;;
2644;SDS011;15377;48.540;9.268;2023-04-03T05:20:59;12.43;;;5.03;;
2644;SDS011;15377;48.540;9.268;2023-04-03T05:23:24;8.47;;;4.43;;
2644;SDS011;15377;48.540;9.268;2023-04-03T05:25:49;9.10;;;5.87;;
2644;SDS011;15377;48.540;9.268;2023-04-03T05:28:15;8.50;;;5.53;;
2644;SDS011;15377;48.540;9.268;2023-04-03T05:30:40;9.00;;;5.43;;
2644;SDS011;15377;48.540;9.268;2023-04-03T05:33:06;9.83;;;5.40;;
2644;SDS011;15377;48.540;9.268;2023-04-03T05:35:31;10.60;;;4.70;;
2644;SDS011;15377;48.540;9.268;2023-04-03T05:37:57;7.77;;;4.47;;
2644;SDS011;15377;48.540;9.268;2023-04-03T05:40:22;8.17;;;5.20;;
2644;SDS011;15377;48.540;9.268;2023-04-03T05:42:48;7.40;;;4.30;;
2644;SDS011;15377;48.540;9.268;2023-04-03T05:45:13;9.07;;;4.90;;
2644;SDS011;15377;48.540;9.268;2023-04-03T05:47:39;6.60;;;3.90;;
2644;SDS011;15377;48.540;9.268;2023-04-03T05:50:04;7.10;;;4.37;;
2644;SDS011;15377;48.540;9.268;2023-04-03T05:52:31;8.60;;;4.70;;
2644;SDS011;15377;48.540;9.268;2023-04-03T05:55:00;8.57;;;4.47;;
2644;SDS011;15377;48.540;9.268;2023-04-03T05:57:25;7.97;;;4.23;;
2644;SDS011;15377;48.540;9.268;2023-04-03T05:59:51;8.47;;;4.47;;
2644;SDS011;15377;48.540;9.268;2023-04-03T06:02:17;8.30;;;4.90;;
2644;SDS011;15377;48.540;9.268;2023-04-03T06:04:44;7.85;;;4.63;;
2644;SDS011;15377;48.540;9.268;2023-04-03T06:07:11;8.00;;;4.55;;
2644;SDS011;15377;48.540;9.268;2023-04-03T06:09:42;10.10;;;4.45;;
2644;SDS011;15377;48.540;9.268;2023-04-03T06:12:07;7.30;;;4.33;;
2644;SDS011;15377;48.540;9.268;2023-04-03T06:14:34;7.05;;;4.38;;
2644;SDS011;15377;48.540;9.268;2023-04-03T06:17:00;8.02;;;4.72;;
2644;SDS011;15377;48.540;9.268;2023-04-03T06:19:26;9.93;;;4.93;;
2644;SDS011;15377;48.540;9.268;2023-04-03T06:21:52;9.60;;;4.40;;
2644;SDS011;15377;48.540;9.268;2023-04-03T06:24:17;7.40;;;4.20;;
2644;SDS011;15377;48.540;9.268;2023-04-03T06:26:45;7.47;;;4.13;;
2644;SDS011;15377;48.540;9.268;2023-04-03T06:29:10;7.07;;;4.00;;
2644;SDS011;15377;48.540;9.268;2023-04-03T06:31:36;9.10;;;5.20;;
2644;SDS011;15377;48.540;9.268;2023-04-03T06:34:02;8.60;;;5.13;;
2644;SDS011;15377;48.540;9.268;2023-04-03T06:36:27;11.00;;;5.78;;
2644;SDS011;15377;48.540;9.268;2023-04-03T06:38:53;7.73;;;4.00;;
2644;SDS011;15377;48.540;9.268;2023-04-03T06:41:19;11.73;;;6.10;;
2644;SDS011;15377;48.540;9.268;2023-04-03T06:43:46;6.55;;;3.53;;
2644;SDS011;15377;48.540;9.268;2023-04-03T06:46:15;10.47;;;4.30;;
2644;SDS011;15377;48.540;9.268;2023-04-03T06:48:41;12.20;;;3.80;;
2644;SDS011;15377;48.540;9.268;2023-04-03T06:51:11;7.65;;;3.83;;
2644;SDS011;15377;48.540;9.268;2023-04-03T06:53:45;9.65;;;3.80;;
2644;SDS011;15377;48.540;9.268;2023-04-03T06:56:11;8.10;;;3.78;;
2644;SDS011;15377;48.540;9.268;2023-04-03T06:58:36;6.63;;;3.40;;
2644;SDS011;15377;48.540;9.268;2023-04-03T07:01:02;7.50;;;4.03;;
2644;SDS011;15377;48.540;9.268;2023-04-03T07:03:27;8.53;;;4.47;;
2644;SDS011;15377;48.540;9.268;2023-04-03T07:05:53;6.80;;;3.73;;
2644;SDS011;15377;48.540;9.268;2023-04-03T07:08:18;7.07;;;3.83;;
2644;SDS011;15377;48.540;9.268;2023-04-03T07:10:43;7.20;;;3.90;;
2644;SDS011;15377;48.540;9.268;2023-04-03T07:13:09;7.33;;;4.13;;
2644;SDS011;15377;48.540;9.268;2023-04-03T07:15:34;6.30;;;3.67;;
2644;SDS011;15377;48.540;9.268;2023-04-03T07:18:01;10.93;;;5.22;;
2644;SDS011;15377;48.540;9.268;2023-04-03T07:20:26;8.60;;;4.50;;
2644;SDS011;15377;48.540;9.268;2023-04-03T07:22:52;8.17;;;4.17;;
2644;SDS011;15377;48.540;9.268;2023-04-03T07:25:17;7.83;;;4.10;;
2644;SDS011;15377;48.540;9.268;2023-04-03T07:27:42;8.00;;;3.97;;
2644;SDS011;15377;48.540;9.268;2023-04-03T07:30:08;8.30;;;3.60;;
2644;SDS011;15377;48.540;9.268;2023-04-03T07:32:34;6.65;;;3.85;;
2644;SDS011;15377;48.540;9.268;2023-04-03T07:35:00;7.97;;;4.00;;
2644;SDS011;15377;48.540;9.268;2023-04-03T07:37:25;8.60;;;4.53;;
2644;SDS011;15377;48.540;9.268;2023-04-03T07:39:51;7.53;;;4.30;;
2644;SDS011;15377;48.540;9.268;2023-04-03T07:42:16;8.43;;;5.00;;
2644;SDS011;15377;48.540;9.268;2023-04-03T07:44:42;9.83;;;5.47;;
2644;SDS011;15377;48.540;9.268;2023-04-03T07:47:07;7.30;;;3.87;;
2644;SDS011;15377;48.540;9.268;2023-04-03T07:49:33;7.00;;;3.70;;
2644;SDS011;15377;48.540;9.268;2023-04-03T08:30:40;8.00;;;4.43;;
2644;SDS011;15377;48.540;9.268;2023-04-03T08:33:07;9.80;;;4.95;;
2644;SDS011;15377;48.540;9.268;2023-04-03T08:35:33;7.97;;;4.20;;
2644;SDS011;15377;48.540;9.268;2023-04-03T08:38:03;7.32;;;4.05;;
2644;SDS011;15377;48.540;9.268;2023-04-03T08:40:29;14.43;;;5.70;;
2644;SDS011;15377;48.540;9.268;2023-04-03T08:43:55;10.33;;;4.27;;
2644;SDS011;15377;48.540;9.268;2023-04-03T08:45:52;8.30;;;3.30;;
2644;SDS011;15377;48.540;9.268;2023-04-03T08:48:26;5.93;;;2.80;;
2644;SDS011;15377;48.540;9.268;2023-04-03T08:51:10;7.03;;;3.73;;
2644;SDS011;15377;48.540;9.268;2023-04-03T08:53:48;7.90;;;4.20;;
2644;SDS011;15377;48.540;9.268;2023-04-03T08:56:24;9.07;;;3.63;;
2644;SDS011;15377;48.540;9.268;2023-04-03T08:58:52;7.73;;;4.00;;
2644;SDS011;15377;48.540;9.268;2023-04-03T09:01:26;7.10;;;4.32;;
2644;SDS011;15377;48.540;9.268;2023-04-03T09:03:58;5.93;;;3.37;;
2644;SDS011;15377;48.540;9.268;2023-04-03T09:06:27;7.90;;;3.60;;
2644;SDS011;15377;48.540;9.268;2023-04-03T09:20:23;12.20;;;3.90;;
2644;SDS011;15377;48.540;9.268;2023-04-03T09:22:56;7.00;;;3.70;;
2644;SDS011;15377;48.540;9.268;2023-04-03T09:25:27;7.43;;;3.90;;
2644;SDS011;15377;48.540;9.268;2023-04-03T09:27:57;6.70;;;3.67;;
2644;SDS011;15377;48.540;9.268;2023-04-03T09:30:25;7.20;;;3.43;;
2644;SDS011;15377;48.540;9.268;2023-04-03T09:32:52;6.60;;;2.90;;
2644;SDS011;15377;48.540;9.268;2023-04-03T09:35:24;5.13;;;2.40;;
2644;SDS011;15377;48.540;9.268;2023-04-03T09:37:58;7.70;;;3.60;;
2644;SDS011;15377;48.540;9.268;2023-04-03T09:42:57;6.37;;;3.33;;
2644;SDS011;15377;48.540;9.268;2023-04-03T09:48:37;7.03;;;4.07;;
2644;SDS011;15377;48.540;9.268;2023-04-03T09:50:38;7.17;;;4.20;;
2644;SDS011;15377;48.540;9.268;2023-04-03T09:53:39;7.40;;;4.23;;
2644;SDS011;15377;48.540;9.268;2023-04-03T09:58:42;6.73;;;3.50;;
2644;SDS011;15377;48.540;9.268;2023-04-03T10:01:29;6.60;;;3.97;;
2644;SDS011;15377;48.540;9.268;2023-04-03T10:04:13;14.17;;;7.97;;
2644;SDS011;15377;48.540;9.268;2023-04-03T10:06:47;8.37;;;4.30;;
2644;SDS011;15377;48.540;9.268;2023-04-03T10:09:21;8.10;;;4.97;;
2644;SDS011;15377;48.540;9.268;2023-04-03T10:12:11;8.83;;;4.70;;
2644;SDS011;15377;48.540;9.268;2023-04-03T10:14:40;7.77;;;3.63;;
2644;SDS011;15377;48.540;9.268;2023-04-03T10:23:22;6.53;;;3.50;;
2644;SDS011;15377;48.540;9.268;2023-04-03T10:31:10;7.43;;;4.20;;
2644;SDS011;15377;48.540;9.268;2023-04-03T10:34:04;7.50;;;3.50;;
2644;SDS011;15377;48.540;9.268;2023-04-03T10:52:37;7.97;;;3.73;;
2644;SDS011;15377;48.540;9.268;2023-04-03T10:57:38;5.70;;;2.80;;
2644;SDS011;15377;48.540;9.268;2023-04-03T11:00:16;7.07;;;3.93;;
2644;SDS011;15377;48.540;9.268;2023-04-03T11:05:18;6.40;;;3.80;;
2644;SDS011;15377;48.540;9.268;2023-04-03T11:07:50;6.87;;;3.33;;
2644;SDS011;15377;48.540;9.268;2023-04-03T11:10:22;7.50;;;3.40;;
2644;SDS011;15377;48.540;9.268;2023-04-03T11:12:58;6.80;;;3.17;;
2644;SDS011;15377;48.540;9.268;2023-04-03T11:15:32;7.70;;;3.20;;
2644;SDS011;15377;48.540;9.268;2023-04-03T11:18:02;7.70;;;3.80;;
2644;SDS011;15377;48.540;9.268;2023-04-03T11:20:32;6.53;;;2.93;;
2644;SDS011;15377;48.540;9.268;2023-04-03T11:25:51;5.77;;;2.27;;
2644;SDS011;15377;48.540;9.268;2023-04-03T11:28:20;8.07;;;3.23;;
2644;SDS011;15377;48.540;9.268;2023-04-03T11:30:47;6.00;;;3.10;;
2644;SDS011;15377;48.540;9.268;2023-04-03T11:35:55;6.60;;;3.07;;
2644;SDS011;15377;48.540;9.268;2023-04-03T11:38:33;7.43;;;2.73;;
2644;SDS011;15377;48.540;9.268;2023-04-03T11:41:02;7.67;;;3.03;;
2644;SDS011;15377;48.540;9.268;2023-04-03T11:43:31;6.40;;;3.20;;
2644;SDS011;15377;48.540;9.268;2023-04-03T11:50:53;6.80;;;3.50;;
2644;SDS011;15377;48.540;9.268;2023-04-03T11:53:39;7.07;;;3.57;;
2644;SDS011;15377;48.540;9.268;2023-04-03T12:04:13;6.27;;;2.70;;
2644;SDS011;15377;48.540;9.268;2023-04-03T12:14:53;8.53;;;3.47;;
2644;SDS011;15377;48.540;9.268;2023-04-03T12:17:20;8.13;;;4.27;;
2644;SDS011;15377;48.540;9.268;2023-04-03T12:19:49;8.43;;;3.50;;
2644;SDS011;15377;48.540;9.268;2023-04-03T12:22:17;6.63;;;3.03;;
2644;SDS011;15377;48.540;9.268;2023-04-03T12:24:46;8.37;;;2.73;;
2644;SDS011;15377;48.540;9.268;2023-04-03T12:27:21;6.67;;;2.60;;
2644;SDS011;15377;48.540;9.268;2023-04-03T12:35:34;5.63;;;2.93;;
2644;SDS011;15377;48.540;9.268;2023-04-03T12:46:14;8.70;;;2.97;;
2644;SDS011;15377;48.540;9.268;2023-04-03T12:48:47;7.10;;;3.07;;
2644;SDS011;15377;48.540;9.268;2023-04-03T12:51:22;6.80;;;2.97;;
2644;SDS011;15377;48.540;9.268;2023-04-03T12:54:38;6.27;;;2.47;;
2644;SDS011;15377;48.540;9.268;2023-04-03T12:57:24;7.97;;;3.33;;
2644;SDS011;15377;48.540;9.268;2023-04-03T12:59:52;7.87;;;3.50;;
2644;SDS011;15377;48.540;9.268;2023-04-03T13:02:31;10.20;;;5.10;;
2644;SDS011;15377;48.540;9.268;2023-04-03T13:05:08;7.50;;;3.47;;
2644;SDS011;15377;48.540;9.268;2023-04-03T13:07:40;5.50;;;2.50;;
2644;SDS011;15377;48.540;9.268;2023-04-03T13:12:34;7.70;;;3.50;;
2644;SDS011;15377;48.540;9.268;2023-04-03T13:15:24;6.00;;;2.20;;
2644;SDS011;15377;48.540;9.268;2023-04-03T13:17:52;6.00;;;3.00;;
2644;SDS011;15377;48.540;9.268;2023-04-03T13:20:29;6.57;;;3.53;;
2644;SDS011;15377;48.540;9.268;2023-04-03T13:22:59;8.10;;;3.23;;
2644;SDS011;15377;48.540;9.268;2023-04-03T13:25:28;8.27;;;3.10;;
2644;SDS011;15377;48.540;9.268;2023-04-03T13:27:57;6.93;;;3.07;;
2644;SDS011;15377;48.540;9.268;2023-04-03T13:30:29;6.87;;;3.23;;
2644;SDS011;15377;48.540;9.268;2023-04-03T13:32:57;6.60;;;2.93;;
2644;SDS011;15377;48.540;9.268;2023-04-03T13:35:29;9.20;;;3.17;;
2644;SDS011;15377;48.540;9.268;2023-04-03T13:38:21;5.77;;;3.00;;
2644;SDS011;15377;48.540;9.268;2023-04-03T13:40:59;6.37;;;2.87;;
2644;SDS011;15377;48.540;9.268;2023-04-03T13:43:28;7.30;;;3.10;;
2644;SDS011;15377;48.540;9.268;2023-04-03T13:45:57;5.50;;;2.57;;
2644;SDS011;15377;48.540;9.268;2023-04-03T13:48:25;7.50;;;4.23;;
2644;SDS011;15377;48.540;9.268;2023-04-03T13:50:52;7.10;;;3.40;;
2644;SDS011;15377;48.540;9.268;2023-04-03T13:53:51;9.70;;;4.33;;
2644;SDS011;15377;48.540;9.268;2023-04-03T13:56:21;9.80;;;5.77;;
2644;SDS011;15377;48.540;9.268;2023-04-03T14:02:13;7.13;;;3.43;;
2644;SDS011;15377;48.540;9.268;2023-04-03T14:04:20;7.27;;;3.40;;
2644;SDS011;15377;48.540;9.268;2023-04-03T14:06:49;6.23;;;3.00;;
2644;SDS011;15377;48.540;9.268;2023-04-03T14:09:16;9.80;;;3.87;;
2644;SDS011;15377;48.540;9.268;2023-04-03T14:11:44;6.63;;;2.70;;
2644;SDS011;15377;48.540;9.268;2023-04-03T14:14:12;6.33;;;3.20;;
2644;SDS011;15377;48.540;9.268;2023-04-03T14:16:58;8.10;;;3.00;;
2644;SDS011;15377;48.540;9.268;2023-04-03T14:19:27;7.40;;;3.10;;
2644;SDS011;15377;48.540;9.268;2023-04-03T14:21:58;7.93;;;3.43;;
2644;SDS011;15377;48.540;9.268;2023-04-03T14:24:26;7.77;;;3.37;;
2644;SDS011;15377;48.540;9.268;2023-04-03T14:26:52;6.00;;;3.23;;
2644;SDS011;15377;48.540;9.268;2023-04-03T14:29:18;6.80;;;3.40;;
2644;SDS011;15377;48.540;9.268;2023-04-03T14:31:46;6.00;;;3.10;;
2644;SDS011;15377;48.540;9.268;2023-04-03T14:34:13;7.73;;;3.50;;
2644;SDS011;15377;48.540;9.268;2023-04-03T14:36:38;6.40;;;3.70;;
2644;SDS011;15377;48.540;9.268;2023-04-03T14:39:06;6.57;;;3.00;;
2644;SDS011;15377;48.540;9.268;2023-04-03T14:41:33;10.97;;;4.73;;
2644;SDS011;15377;48.540;9.268;2023-04-03T14:44:00;9.03;;;3.67;;
2644;SDS011;15377;48.540;9.268;2023-04-03T14:46:27;10.60;;;3.50;;
2644;SDS011;15377;48.540;9.268;2023-04-03T14:48:54;7.10;;;3.63;;
2644;SDS011;15377;48.540;9.268;2023-04-03T14:51:20;10.93;;;3.57;;
2644;SDS011;15377;48.540;9.268;2023-04-03T14:53:45;6.30;;;3.30;;
2644;SDS011;15377;48.540;9.268;2023-04-03T14:56:18;6.57;;;3.27;;
2644;SDS011;15377;48.540;9.268;2023-04-03T14:58:48;10.13;;;5.83;;
2644;SDS011;15377;48.540;9.268;2023-04-03T15:01:17;6.37;;;3.20;;
2644;SDS011;15377;48.540;9.268;2023-04-03T15:03:43;8.70;;;3.50;;
2644;SDS011;15377;48.540;9.268;2023-04-03T15:06:12;7.03;;;3.30;;
2644;SDS011;15377;48.540;9.268;2023-04-03T15:08:39;6.30;;;2.80;;
2644;SDS011;15377;48.540;9.268;2023-04-03T15:11:07;5.70;;;2.67;;
2644;SDS011;15377;48.540;9.268;2023-04-03T15:13:33;7.87;;;3.67;;
2644;SDS011;15377;48.540;9.268;2023-04-03T15:15:59;7.43;;;3.50;;
2644;SDS011;15377;48.540;9.268;2023-04-03T15:18:25;6.80;;;3.70;;
2644;SDS011;15377;48.540;9.268;2023-04-03T15:20:52;7.60;;;3.37;;
2644;SDS011;15377;48.540;9.268;2023-04-03T15:23:18;7.40;;;3.40;;
2644;SDS011;15377;48.540;9.268;2023-04-03T15:25:44;6.23;;;3.37;;
2644;SDS011;15377;48.540;9.268;2023-04-03T15:28:17;8.03;;;3.20;;
2644;SDS011;15377;48.540;9.268;2023-04-03T15:30:47;6.60;;;2.87;;
2644;SDS011;15377;48.540;9.268;2023-04-03T15:33:13;11.17;;;4.40;;
2644;SDS011;15377;48.540;9.268;2023-04-03T15:35:38;8.40;;;4.27;;
2644;SDS011;15377;48.540;9.268;2023-04-03T15:38:03;6.53;;;3.30;;
2644;SDS011;15377;48.540;9.268;2023-04-03T15:40:29;9.17;;;4.10;;
2644;SDS011;15377;48.540;9.268;2023-04-03T15:42:55;7.50;;;3.50;;
2644;SDS011;15377;48.540;9.268;2023-04-03T15:45:20;7.17;;;3.97;;
2644;SDS011;15377;48.540;9.268;2023-04-03T15:47:46;6.87;;;3.83;;
2644;SDS011;15377;48.540;9.268;2023-04-03T15:50:12;6.37;;;3.20;;
2644;SDS011;15377;48.540;9.268;2023-04-03T15:52:37;9.63;;;3.90;;
2644;SDS011;15377;48.540;9.268;2023-04-03T15:55:03;8.37;;;3.60;;
2644;SDS011;15377;48.540;9.268;2023-04-03T15:57:29;9.40;;;3.33;;
2644;SDS011;15377;48.540;9.268;2023-04-03T15:59:55;7.80;;;3.57;;
2644;SDS011;15377;48.540;9.268;2023-04-03T16:02:21;6.60;;;2.90;;
2644;SDS011;15377;48.540;9.268;2023-04-03T16:04:47;7.87;;;3.80;;
2644;SDS011;15377;48.540;9.268;2023-04-03T16:07:12;5.73;;;3.27;;
2644;SDS011;15377;48.540;9.268;2023-04-03T16:09:37;6.30;;;3.40;;
2644;SDS011;15377;48.540;9.268;2023-04-03T16:12:03;6.87;;;3.40;;
2644;SDS011;15377;48.540;9.268;2023-04-03T16:14:28;7.53;;;3.33;;
2644;SDS011;15377;48.540;9.268;2023-04-03T16:16:55;7.10;;;3.20;;
2644;SDS011;15377;48.540;9.268;2023-04-03T16:19:21;8.10;;;3.37;;
2644;SDS011;15377;48.540;9.268;2023-04-03T16:21:47;8.50;;;3.83;;
2644;SDS011;15377;48.540;9.268;2023-04-03T16:24:16;6.40;;;3.63;;
2644;SDS011;15377;48.540;9.268;2023-04-03T16:26:50;6.70;;;3.60;;
2644;SDS011;15377;48.540;9.268;2023-04-03T16:29:18;6.30;;;3.27;;
2644;SDS011;15377;48.540;9.268;2023-04-03T16:31:43;6.83;;;3.40;;
2644;SDS011;15377;48.540;9.268;2023-04-03T16:34:09;6.13;;;3.17;;
2644;SDS011;15377;48.540;9.268;2023-04-03T16:36:34;7.33;;;4.10;;
2644;SDS011;15377;48.540;9.268;2023-04-03T16:39:00;6.53;;;2.93;;
2644;SDS011;15377;48.540;9.268;2023-04-03T16:41:25;7.53;;;3.03;;
2644;SDS011;15377;48.540;9.268;2023-04-03T16:43:51;7.17;;;3.30;;
2644;SDS011;15377;48.540;9.268;2023-04-03T16:46:16;6.90;;;3.20;;
2644;SDS011;15377;48.540;9.268;2023-04-03T16:48:41;6.53;;;2.80;;
2644;SDS011;15377;48.540;9.268;2023-04-03T16:51:07;6.57;;;3.33;;
2644;SDS011;15377;48.540;9.268;2023-04-03T16:53:32;8.10;;;3.17;;
2644;SDS011;15377;48.540;9.268;2023-04-03T16:55:57;7.83;;;4.73;;
2644;SDS011;15377;48.540;9.268;2023-04-03T16:58:23;7.30;;;2.70;;
2644;SDS011;15377;48.540;9.268;2023-04-03T17:00:49;7.00;;;3.40;;
2644;SDS011;15377;48.540;9.268;2023-04-03T17:03:15;5.50;;;2.73;;
2644;SDS011;15377;48.540;9.268;2023-04-03T17:05:40;6.60;;;3.07;;
2644;SDS011;15377;48.540;9.268;2023-04-03T17:08:05;5.67;;;3.00;;
2644;SDS011;15377;48.540;9.268;2023-04-03T17:10:31;7.67;;;3.87;;
2644;SDS011;15377;48.540;9.268;2023-04-03T17:12:58;7.10;;;3.43;;
2644;SDS011;15377;48.540;9.268;2023-04-03T17:15:24;7.03;;;2.90;;
2644;SDS011;15377;48.540;9.268;2023-04-03T17:17:50;6.90;;;3.40;;
2644;SDS011;15377;48.540;9.268;2023-04-03T17:20:16;6.60;;;3.20;;
2644;SDS011;15377;48.540;9.268;2023-04-03T17:22:42;8.40;;;3.10;;
2644;SDS011;15377;48.540;9.268;2023-04-03T17:25:09;7.83;;;3.23;;
2644;SDS011;15377;48.540;9.268;2023-04-03T17:27:35;7.60;;;3.53;;
2644;SDS011;15377;48.540;9.268;2023-04-03T17:30:00;6.40;;;3.00;;